Sturkie, Arkansas
Current Conditions -  °F | °C
As of 8:53 PM on Sunday 21 Dec 2014 (Local Time) from KUNO Reporting Station
Overcast Overcast  
Wind Chill: 33°   Ceiling: 7500
Heat Index: 38°   Visibility: 10mi
Dew Point: 32°   Wind: 6mph
Humidity: 79%   Direction: 110°ESE
Pressure: 29.93"   Gusts: NA
Location:  36.46°N, 91.87°W
Report Text: KUNO 220253Z AUTO 11005KT 10SM OVC075 03/00 A2993 RMK AO2 SLP140 T00330000 58012 $
Loading
Personal Weather Stations






























Interactive Weather Map New forecast layout! Learn more

10-Day Weather Forecast

Advertisements
Track Severe Weather on mobile